createdAt,value
2017-09-13T00:00:03.142Z,4.45
2017-09-13T00:01:03.126Z,4.34
2017-09-13T00:02:03.105Z,4.40
2017-09-13T00:03:03.092Z,4.40
2017-09-13T00:04:03.072Z,4.37
2017-09-13T00:05:03.056Z,4.36
2017-09-13T00:06:03.039Z,4.34
2017-09-13T00:07:03.024Z,4.47
2017-09-13T00:08:03.058Z,4.33
2017-09-13T00:09:02.991Z,4.37
2017-09-13T00:10:02.981Z,4.36
2017-09-13T00:11:02.964Z,4.33
2017-09-13T00:12:02.944Z,4.34
2017-09-13T00:13:02.927Z,4.36
2017-09-13T00:14:02.912Z,4.37
2017-09-13T00:15:02.899Z,4.29
2017-09-13T00:16:02.879Z,4.33
2017-09-13T00:17:02.864Z,4.24
2017-09-13T00:18:02.847Z,4.30
2017-09-13T00:19:02.829Z,4.24
2017-09-13T00:20:02.813Z,4.30
2017-09-13T00:21:02.797Z,4.32
2017-09-13T00:22:02.783Z,4.26
2017-09-13T00:23:02.814Z,4.24
2017-09-13T00:24:02.750Z,4.29
2017-09-13T00:25:02.739Z,4.34
2017-09-13T00:26:02.724Z,4.27
2017-09-13T00:27:02.701Z,4.26
2017-09-13T00:28:02.742Z,4.22
2017-09-13T00:29:02.674Z,4.30
2017-09-13T00:30:02.653Z,4.26
2017-09-13T00:31:02.652Z,4.22
2017-09-13T00:32:02.621Z,4.26
2017-09-13T00:33:02.654Z,4.23
2017-09-13T00:34:02.594Z,4.16
2017-09-13T00:35:02.573Z,4.16
2017-09-13T00:36:02.555Z,4.16
2017-09-13T00:37:02.540Z,4.14
2017-09-13T00:38:02.575Z,4.22
2017-09-13T00:39:02.508Z,4.12
2017-09-13T00:40:02.492Z,4.05
2017-09-13T00:41:02.482Z,4.14
2017-09-13T00:42:02.460Z,4.14
2017-09-13T00:43:02.493Z,4.15
2017-09-13T00:44:02.428Z,4.14
2017-09-13T00:45:02.410Z,4.11
2017-09-13T00:46:02.395Z,4.16
2017-09-13T00:47:02.378Z,4.11
2017-09-13T00:48:02.364Z,4.12
2017-09-13T00:49:02.352Z,4.16
2017-09-13T00:50:02.380Z,4.18
2017-09-13T00:51:02.314Z,4.09
2017-09-13T00:52:02.298Z,4.11
2017-09-13T00:53:02.288Z,4.09
2017-09-13T00:54:02.272Z,4.05
2017-09-13T00:55:02.252Z,4.08
2017-09-13T00:56:02.239Z,4.11
2017-09-13T00:57:02.218Z,4.09
2017-09-13T00:58:02.207Z,4.04
2017-09-13T00:59:02.185Z,3.98
2017-09-13T01:00:02.224Z,4.00
2017-09-13T01:01:02.202Z,3.96
2017-09-13T01:02:02.138Z,4.04
2017-09-13T01:03:02.126Z,3.94
2017-09-13T01:04:02.109Z,3.93
2017-09-13T01:05:02.087Z,4.04
2017-09-13T01:06:02.127Z,3.98
2017-09-13T01:07:02.055Z,3.98
2017-09-13T01:08:02.043Z,3.93
2017-09-13T01:09:02.024Z,3.97
2017-09-13T01:10:02.017Z,3.98
2017-09-13T01:11:02.048Z,4.00
2017-09-13T01:12:01.975Z,4.04
2017-09-13T01:13:01.958Z,3.97
2017-09-13T01:14:01.943Z,3.97
2017-09-13T01:15:01.927Z,3.96
2017-09-13T01:16:01.914Z,3.96
2017-09-13T01:17:01.893Z,3.98
2017-09-13T01:18:01.876Z,3.91
2017-09-13T01:19:01.864Z,3.93
2017-09-13T01:20:01.852Z,3.93
2017-09-13T01:21:01.834Z,3.91
2017-09-13T01:22:01.811Z,3.93
2017-09-13T01:23:01.845Z,3.94
2017-09-13T01:24:01.786Z,3.91
2017-09-13T01:25:01.762Z,3.94
2017-09-13T01:26:01.746Z,3.90
2017-09-13T01:27:01.730Z,3.84
2017-09-13T01:28:01.763Z,3.79
2017-09-13T01:29:01.703Z,3.90
2017-09-13T01:30:01.688Z,3.83
2017-09-13T01:31:01.664Z,3.86
2017-09-13T01:32:01.658Z,3.90
2017-09-13T01:33:01.634Z,3.84
2017-09-13T01:34:01.668Z,3.80
2017-09-13T01:35:01.606Z,3.84
2017-09-13T01:36:01.585Z,3.86
2017-09-13T01:37:01.567Z,3.93
2017-09-13T01:38:01.551Z,3.84
2017-09-13T01:39:01.585Z,3.80
2017-09-13T01:40:01.519Z,3.79
2017-09-13T01:41:01.508Z,3.84
2017-09-13T01:42:01.487Z,3.84
2017-09-13T01:43:01.476Z,3.88
2017-09-13T01:44:01.509Z,3.79
2017-09-13T01:45:01.436Z,3.90
2017-09-13T01:46:01.420Z,3.84
2017-09-13T01:47:01.403Z,3.88
2017-09-13T01:48:01.388Z,3.84
2017-09-13T01:49:01.372Z,3.86
2017-09-13T01:50:01.411Z,3.86
2017-09-13T01:51:01.388Z,3.84
2017-09-13T01:52:01.322Z,3.84
2017-09-13T01:53:01.312Z,3.76
2017-09-13T01:54:01.292Z,3.80
2017-09-13T01:55:01.274Z,3.87
2017-09-13T01:56:01.309Z,3.84
2017-09-13T01:57:01.242Z,3.72
2017-09-13T01:58:01.226Z,3.75
2017-09-13T01:59:01.207Z,3.73
2017-09-13T02:00:01.192Z,3.70
2017-09-13T02:01:01.176Z,3.80
2017-09-13T02:02:01.209Z,3.76
2017-09-13T02:03:01.142Z,3.73
2017-09-13T02:04:01.125Z,3.73
2017-09-13T02:05:01.115Z,3.75
2017-09-13T02:06:01.094Z,3.70
2017-09-13T02:07:01.077Z,3.65
2017-09-13T02:08:01.064Z,3.70
2017-09-13T02:09:01.046Z,3.70
2017-09-13T02:10:01.028Z,3.66
2017-09-13T02:11:01.010Z,3.72
2017-09-13T02:12:01.001Z,3.66
2017-09-13T02:13:00.980Z,3.70
2017-09-13T02:14:00.968Z,3.73
2017-09-13T02:15:00.945Z,3.75
2017-09-13T02:16:00.935Z,3.70
2017-09-13T02:17:00.918Z,3.69
2017-09-13T02:18:00.897Z,3.66
2017-09-13T02:19:00.880Z,3.70
2017-09-13T02:20:00.864Z,3.68
2017-09-13T02:21:00.847Z,3.69
2017-09-13T02:22:00.831Z,3.75
2017-09-13T02:23:00.812Z,3.66
2017-09-13T02:24:00.848Z,3.60
2017-09-13T02:25:00.782Z,3.61
2017-09-13T02:26:00.765Z,3.75
2017-09-13T02:27:00.754Z,3.66
2017-09-13T02:28:00.733Z,3.70
2017-09-13T02:29:00.721Z,3.69
2017-09-13T02:30:00.701Z,3.66
2017-09-13T02:31:00.681Z,3.58
2017-09-13T02:32:00.670Z,3.54
2017-09-13T02:33:00.651Z,3.60
2017-09-13T02:34:00.661Z,3.48
2017-09-13T02:35:00.665Z,3.54
2017-09-13T02:36:00.600Z,3.60
2017-09-13T02:37:00.583Z,3.55
2017-09-13T02:38:00.566Z,3.51
2017-09-13T02:39:00.551Z,3.60
2017-09-13T02:40:00.535Z,3.57
2017-09-13T02:41:00.569Z,3.57
2017-09-13T02:42:00.502Z,3.57
2017-09-13T02:43:00.484Z,3.60
2017-09-13T02:44:00.469Z,3.55
2017-09-13T02:45:00.459Z,3.55
2017-09-13T02:46:00.437Z,3.52
2017-09-13T02:47:00.468Z,3.58
2017-09-13T02:48:00.403Z,3.55
2017-09-13T02:49:00.391Z,3.60
2017-09-13T02:50:00.371Z,3.58
2017-09-13T02:51:00.356Z,3.55
2017-09-13T02:52:00.335Z,3.58
2017-09-13T02:53:00.326Z,3.54
2017-09-13T02:54:00.303Z,3.52
2017-09-13T02:55:00.293Z,3.54
2017-09-13T02:56:00.326Z,3.54
2017-09-13T02:57:00.309Z,3.52
2017-09-13T02:58:00.238Z,3.58
2017-09-13T02:59:00.225Z,3.51
2017-09-13T03:00:00.203Z,3.52
2017-09-13T03:01:00.193Z,3.60
2017-09-13T03:02:00.220Z,3.47
2017-09-13T03:03:00.153Z,3.52
2017-09-13T03:04:00.138Z,3.45
2017-09-13T03:05:00.122Z,3.47
2017-09-13T03:06:00.104Z,3.51
2017-09-13T03:07:00.093Z,3.51
2017-09-13T03:08:00.071Z,3.48
2017-09-13T03:09:00.106Z,3.47
2017-09-13T03:10:00.042Z,3.45
2017-09-13T03:11:00.022Z,3.48
2017-09-13T03:12:00.010Z,3.51
2017-09-13T03:12:59.994Z,3.50
2017-09-13T03:14:00.025Z,3.52
2017-09-13T03:14:59.956Z,3.50
2017-09-13T03:15:59.938Z,3.47
2017-09-13T03:16:59.927Z,3.47
2017-09-13T03:17:59.908Z,3.50
2017-09-13T03:18:59.938Z,3.48
2017-09-13T03:19:59.872Z,3.45
2017-09-13T03:20:59.912Z,3.47
2017-09-13T03:21:59.841Z,3.48
2017-09-13T03:22:59.823Z,3.48
2017-09-13T03:23:59.806Z,3.51
2017-09-13T03:24:59.789Z,3.48
2017-09-13T03:25:59.824Z,3.50
2017-09-13T03:26:59.755Z,3.45
2017-09-13T03:27:59.740Z,3.45
2017-09-13T03:28:59.734Z,3.42
2017-09-13T03:29:59.707Z,3.47
2017-09-13T03:30:59.696Z,3.36
2017-09-13T03:31:59.674Z,3.42
2017-09-13T03:32:59.657Z,3.48
2017-09-13T03:33:59.641Z,3.47
2017-09-13T03:34:59.623Z,3.36
2017-09-13T03:35:59.608Z,3.43
2017-09-13T03:36:59.640Z,3.35
2017-09-13T03:37:59.573Z,3.29
2017-09-13T03:38:59.562Z,3.39
2017-09-13T03:39:59.541Z,3.35
2017-09-13T03:40:59.530Z,3.43
2017-09-13T03:41:59.513Z,3.39
2017-09-13T03:42:59.497Z,3.28
2017-09-13T03:43:59.475Z,3.36
2017-09-13T03:44:59.457Z,3.35
2017-09-13T03:45:59.442Z,3.35
2017-09-13T03:46:59.429Z,3.39
2017-09-13T03:47:59.408Z,3.39
2017-09-13T03:48:59.391Z,3.39
2017-09-13T03:49:59.381Z,3.35
2017-09-13T03:50:59.406Z,3.39
2017-09-13T03:51:59.348Z,3.39
2017-09-13T03:52:59.323Z,3.35
2017-09-13T03:53:59.308Z,3.35
2017-09-13T03:54:59.289Z,3.32
2017-09-13T03:55:59.323Z,3.39
2017-09-13T03:56:59.258Z,3.40
2017-09-13T03:57:59.247Z,3.32
2017-09-13T03:58:59.223Z,3.33
2017-09-13T03:59:59.207Z,3.31
2017-09-13T04:00:59.246Z,3.32
2017-09-13T04:01:59.183Z,3.36
2017-09-13T04:02:59.162Z,3.32
2017-09-13T04:03:59.145Z,3.35
2017-09-13T04:04:59.122Z,3.36
2017-09-13T04:05:59.156Z,3.26
2017-09-13T04:06:59.144Z,3.33
2017-09-13T04:07:59.073Z,3.28
2017-09-13T04:08:59.055Z,3.32
2017-09-13T04:09:59.039Z,3.40
2017-09-13T04:10:59.021Z,3.33
2017-09-13T04:11:59.054Z,3.24
2017-09-13T04:12:58.987Z,3.33
2017-09-13T04:13:58.971Z,3.21
2017-09-13T04:14:58.959Z,3.28
2017-09-13T04:15:58.937Z,3.26
2017-09-13T04:16:58.970Z,3.35
2017-09-13T04:17:58.903Z,3.24
2017-09-13T04:18:58.886Z,3.28
2017-09-13T04:19:58.869Z,3.33
2017-09-13T04:20:58.858Z,3.40
2017-09-13T04:21:58.841Z,3.26
2017-09-13T04:22:58.818Z,3.26
2017-09-13T04:23:58.803Z,3.36
2017-09-13T04:24:58.786Z,3.24
2017-09-13T04:25:58.774Z,3.24
2017-09-13T04:26:58.802Z,3.20
2017-09-13T04:27:58.735Z,3.32
2017-09-13T04:28:58.718Z,3.23
2017-09-13T04:29:58.702Z,3.26
2017-09-13T04:30:58.689Z,3.31
2017-09-13T04:31:58.717Z,3.40
2017-09-13T04:32:58.650Z,3.28
2017-09-13T04:33:58.635Z,3.33
2017-09-13T04:34:58.616Z,3.39
2017-09-13T04:35:58.600Z,3.36
2017-09-13T04:36:58.632Z,3.33
2017-09-13T04:37:58.566Z,3.32
2017-09-13T04:38:58.554Z,3.40
2017-09-13T04:39:58.531Z,3.32
2017-09-13T04:40:58.520Z,3.32
2017-09-13T04:41:58.555Z,3.39
2017-09-13T04:42:58.481Z,3.36
2017-09-13T04:43:58.466Z,3.36
2017-09-13T04:44:58.449Z,3.36
2017-09-13T04:45:58.432Z,3.35
2017-09-13T04:46:58.464Z,3.35
2017-09-13T04:47:58.403Z,3.39
2017-09-13T04:48:58.381Z,3.35
2017-09-13T04:49:58.364Z,3.35
2017-09-13T04:50:58.347Z,3.39
2017-09-13T04:51:58.396Z,3.43
2017-09-13T04:52:58.313Z,3.42
2017-09-13T04:53:58.296Z,3.43
2017-09-13T04:54:58.281Z,3.40
2017-09-13T04:55:58.267Z,3.42
2017-09-13T04:56:58.297Z,3.45
2017-09-13T04:57:58.229Z,3.48
2017-09-13T04:58:58.213Z,3.42
2017-09-13T04:59:58.196Z,3.42
2017-09-13T05:00:58.180Z,3.50
2017-09-13T05:01:58.163Z,3.45
2017-09-13T05:02:58.151Z,3.50
2017-09-13T05:03:58.134Z,3.48
2017-09-13T05:04:58.112Z,3.48
2017-09-13T05:05:58.097Z,3.55
2017-09-13T05:06:58.089Z,3.54
2017-09-13T05:07:58.062Z,3.62
2017-09-13T05:08:58.045Z,3.52
2017-09-13T05:09:58.031Z,3.60
2017-09-13T05:10:58.010Z,3.60
2017-09-13T05:11:57.995Z,3.55
2017-09-13T05:12:57.983Z,3.68
2017-09-13T05:13:57.961Z,3.62
2017-09-13T05:14:57.999Z,3.57
2017-09-13T05:15:57.926Z,3.60
2017-09-13T05:16:57.912Z,3.65
2017-09-13T05:17:57.900Z,3.72
2017-09-13T05:18:57.876Z,3.66
2017-09-13T05:19:57.915Z,3.72
2017-09-13T05:20:57.843Z,3.75
2017-09-13T05:21:57.828Z,3.88
2017-09-13T05:22:57.809Z,3.80
2017-09-13T05:23:57.793Z,3.93
2017-09-13T05:24:57.778Z,3.94
2017-09-13T05:25:57.810Z,3.98
2017-09-13T05:26:57.749Z,4.02
2017-09-13T05:27:57.728Z,4.02
2017-09-13T05:28:57.711Z,4.06
2017-09-13T05:29:57.695Z,4.08
2017-09-13T05:30:57.678Z,4.06
2017-09-13T05:31:57.667Z,4.11
2017-09-13T05:32:57.646Z,4.20
2017-09-13T05:33:57.634Z,4.24
2017-09-13T05:34:57.611Z,4.23
2017-09-13T05:35:57.601Z,4.26
2017-09-13T05:36:57.629Z,4.24
2017-09-13T05:37:57.569Z,4.30
2017-09-13T05:38:57.547Z,4.33
2017-09-13T05:39:57.531Z,4.41
2017-09-13T05:40:57.514Z,4.44
2017-09-13T05:41:57.499Z,4.42
2017-09-13T05:42:57.483Z,4.44
2017-09-13T05:43:57.469Z,4.45
2017-09-13T05:44:57.452Z,4.51
2017-09-13T05:45:57.438Z,4.51
2017-09-13T05:46:57.468Z,4.60
2017-09-13T05:47:57.402Z,4.55
2017-09-13T05:48:57.388Z,4.73
2017-09-13T05:49:57.372Z,4.72
2017-09-13T05:50:57.354Z,4.72
2017-09-13T05:51:57.339Z,4.72
2017-09-13T05:52:57.372Z,4.67
2017-09-13T05:53:57.312Z,4.85
2017-09-13T05:54:57.291Z,4.82
2017-09-13T05:55:57.277Z,4.92
2017-09-13T05:56:57.260Z,4.92
2017-09-13T05:57:57.305Z,5.00
2017-09-13T05:58:57.234Z,5.00
2017-09-13T05:59:57.220Z,5.07
2017-09-13T06:00:57.205Z,5.22
2017-09-13T06:01:57.184Z,5.39
2017-09-13T06:02:57.174Z,5.56
2017-09-13T06:03:57.163Z,5.81
2017-09-13T06:04:57.143Z,5.94
2017-09-13T06:05:57.178Z,6.19
2017-09-13T06:06:57.113Z,6.28
2017-09-13T06:07:57.100Z,6.31
2017-09-13T06:08:57.086Z,6.48
2017-09-13T06:09:57.073Z,6.64
2017-09-13T06:10:57.108Z,6.67
2017-09-13T06:11:57.044Z,6.87
2017-09-13T06:12:57.031Z,6.84
2017-09-13T06:13:57.023Z,7.03
2017-09-13T06:14:57.013Z,6.97
2017-09-13T06:15:56.996Z,6.97
2017-09-13T06:16:56.977Z,6.97
2017-09-13T06:17:56.964Z,7.03
2017-09-13T06:18:56.956Z,6.99
2017-09-13T06:19:56.938Z,7.12
2017-09-13T06:20:56.974Z,7.12
2017-09-13T06:21:56.913Z,7.24
2017-09-13T06:22:56.897Z,7.24
2017-09-13T06:23:56.886Z,7.30
2017-09-13T06:24:56.872Z,7.43
2017-09-13T06:25:56.910Z,7.63
2017-09-13T06:26:56.896Z,7.75
2017-09-13T06:27:56.839Z,7.77
2017-09-13T06:28:56.820Z,8.15
2017-09-13T06:29:56.809Z,8.22
2017-09-13T06:30:56.795Z,8.47
2017-09-13T06:31:56.832Z,8.58
2017-09-13T06:32:56.825Z,8.62
2017-09-13T06:33:56.758Z,8.70
2017-09-13T06:34:56.749Z,8.68
2017-09-13T06:35:56.733Z,8.70
2017-09-13T06:36:56.718Z,8.50
2017-09-13T06:37:56.762Z,8.43
2017-09-13T06:38:56.694Z,8.33
2017-09-13T06:39:56.683Z,8.34
2017-09-13T06:40:56.671Z,8.26
2017-09-13T06:41:56.656Z,8.33
2017-09-13T06:42:56.693Z,8.34
2017-09-13T06:43:56.631Z,8.36
2017-09-13T06:44:56.624Z,8.26
2017-09-13T06:45:56.607Z,8.28
2017-09-13T06:46:56.591Z,8.25
2017-09-13T06:47:56.579Z,8.40
2017-09-13T06:48:56.568Z,8.38
2017-09-13T06:49:56.555Z,8.36
2017-09-13T06:50:56.547Z,8.25
2017-09-13T06:51:56.536Z,8.12
2017-09-13T06:52:56.518Z,8.11
2017-09-13T06:53:56.511Z,8.02
2017-09-13T06:54:56.497Z,8.10
2017-09-13T06:55:56.480Z,8.18
2017-09-13T06:56:56.467Z,8.22
2017-09-13T06:57:56.461Z,8.18
2017-09-13T06:58:56.494Z,8.30
2017-09-13T06:59:56.439Z,8.25
2017-09-13T07:00:56.418Z,8.18
2017-09-13T07:01:56.410Z,8.25
2017-09-13T07:02:56.393Z,8.28
2017-09-13T07:03:56.430Z,8.28
2017-09-13T07:04:56.423Z,8.53
2017-09-13T07:05:56.355Z,8.63
2017-09-13T07:06:56.342Z,8.84
2017-09-13T07:07:56.332Z,9.14
2017-09-13T07:08:56.317Z,9.28
2017-09-13T07:09:56.307Z,9.36
2017-09-13T07:10:56.348Z,9.65
2017-09-13T07:11:56.286Z,9.81
2017-09-13T07:12:56.268Z,9.94
2017-09-13T07:13:56.262Z,10.14
2017-09-13T07:14:56.243Z,10.40
2017-09-13T07:15:56.232Z,10.78
2017-09-13T07:16:56.221Z,11.11
2017-09-13T07:17:56.207Z,11.46
2017-09-13T07:18:56.196Z,11.72
2017-09-13T07:19:56.185Z,12.02
2017-09-13T07:20:56.224Z,12.41
2017-09-13T07:21:56.161Z,13.00
2017-09-13T07:22:56.150Z,13.67
2017-09-13T07:23:56.140Z,14.22
2017-09-13T07:24:56.127Z,14.60
2017-09-13T07:25:56.165Z,14.92
2017-09-13T07:26:56.105Z,15.11
2017-09-13T07:27:56.094Z,15.43
2017-09-13T07:28:56.084Z,15.84
2017-09-13T07:29:56.073Z,16.30
2017-09-13T07:30:56.112Z,16.94
2017-09-13T07:31:56.051Z,17.28
2017-09-13T07:32:56.039Z,17.95
2017-09-13T07:33:56.028Z,18.33
2017-09-13T07:34:56.019Z,18.73
2017-09-13T07:35:56.008Z,19.22
2017-09-13T07:36:56.054Z,19.19
2017-09-13T07:37:55.988Z,19.63
2017-09-13T07:38:55.978Z,19.92
2017-09-13T07:39:55.967Z,19.96
2017-09-13T07:40:55.963Z,19.96
2017-09-13T07:41:55.950Z,19.58
2017-09-13T07:42:55.944Z,19.39
2017-09-13T07:43:55.927Z,19.54
2017-09-13T07:44:55.920Z,19.80
2017-09-13T07:45:55.910Z,20.03
2017-09-13T07:46:55.969Z,20.48
2017-09-13T07:47:55.896Z,20.47
2017-09-13T07:48:55.886Z,20.69
2017-09-13T07:49:55.872Z,20.85
2017-09-13T07:50:55.864Z,20.84
2017-09-13T07:51:55.904Z,21.16
2017-09-13T07:52:55.853Z,21.40
2017-09-13T07:53:55.839Z,21.91
2017-09-13T07:54:55.833Z,22.09
2017-09-13T07:55:55.876Z,22.12
2017-09-13T07:56:55.821Z,22.21
2017-09-13T07:57:55.814Z,21.77
2017-09-13T07:58:55.809Z,21.19
2017-09-13T07:59:55.805Z,20.94
2017-09-13T08:00:55.806Z,20.73
2017-09-13T08:01:55.797Z,20.58
2017-09-13T08:02:55.792Z,20.42
2017-09-13T08:03:55.795Z,20.48
2017-09-13T08:04:55.792Z,20.29
2017-09-13T08:05:55.785Z,20.38
2017-09-13T08:06:55.781Z,20.52
2017-09-13T08:07:55.830Z,20.54
2017-09-13T08:08:55.839Z,20.54
2017-09-13T08:09:55.782Z,20.29
2017-09-13T08:10:55.777Z,20.10
2017-09-13T08:11:55.776Z,19.86
2017-09-13T08:12:55.777Z,19.74
2017-09-13T08:13:55.777Z,19.43
2017-09-13T08:14:55.779Z,19.06
2017-09-13T08:15:55.780Z,18.62
2017-09-13T08:16:55.782Z,18.00
2017-09-13T08:17:55.784Z,17.74
2017-09-13T08:18:55.787Z,17.28
2017-09-13T08:19:55.789Z,16.70
2017-09-13T08:20:55.791Z,16.20
2017-09-13T08:21:55.800Z,15.75
2017-09-13T08:22:55.797Z,15.29
2017-09-13T08:23:55.854Z,14.83
2017-09-13T08:24:55.804Z,14.58
2017-09-13T08:25:55.810Z,14.45
2017-09-13T08:26:55.805Z,14.24
2017-09-13T08:27:55.807Z,14.25
2017-09-13T08:28:55.865Z,14.15
2017-09-13T08:29:55.814Z,14.09
2017-09-13T08:30:55.814Z,14.07
2017-09-13T08:31:55.813Z,14.04
2017-09-13T08:32:55.817Z,14.07
2017-09-13T08:33:55.822Z,14.21
2017-09-13T08:34:55.868Z,14.10
2017-09-13T08:35:55.816Z,14.15
2017-09-13T08:36:55.817Z,14.22
2017-09-13T08:37:55.868Z,14.28
2017-09-13T08:38:55.820Z,14.25
2017-09-13T08:39:55.820Z,14.22
2017-09-13T08:40:55.818Z,14.17
2017-09-13T08:41:55.813Z,14.21
2017-09-13T08:42:55.861Z,14.24
2017-09-13T08:43:55.808Z,14.42
2017-09-13T08:44:55.807Z,14.46
2017-09-13T08:45:55.808Z,14.64
2017-09-13T08:46:55.800Z,14.57
2017-09-13T08:47:55.847Z,14.52
2017-09-13T08:48:55.793Z,14.27
2017-09-13T08:49:55.796Z,14.03
2017-09-13T08:50:55.786Z,14.02
2017-09-13T08:51:55.783Z,13.97
2017-09-13T08:52:55.829Z,13.97
2017-09-13T08:53:55.774Z,13.99
2017-09-13T08:54:55.770Z,13.96
2017-09-13T08:55:55.765Z,13.89
2017-09-13T08:56:55.760Z,14.00
2017-09-13T08:57:55.781Z,14.20
2017-09-13T08:58:55.799Z,14.43
2017-09-13T08:59:55.745Z,14.61
2017-09-13T09:00:55.738Z,14.68
2017-09-13T09:01:55.739Z,14.69
2017-09-13T09:02:55.726Z,14.58
2017-09-13T09:03:55.772Z,14.51
2017-09-13T09:04:55.716Z,14.47
2017-09-13T09:05:55.710Z,14.61
2017-09-13T09:06:55.709Z,14.64
2017-09-13T09:07:55.702Z,14.57
2017-09-13T09:08:55.693Z,14.73
2017-09-13T09:09:55.685Z,14.69
2017-09-13T09:10:55.730Z,14.68
2017-09-13T09:11:55.678Z,14.61
2017-09-13T09:12:55.666Z,14.73
2017-09-13T09:13:55.661Z,14.65
2017-09-13T09:14:55.653Z,14.69
2017-09-13T09:15:55.648Z,14.60
2017-09-13T09:16:55.697Z,14.73
2017-09-13T09:17:55.634Z,14.68
2017-09-13T09:18:55.633Z,14.88
2017-09-13T09:19:55.621Z,14.73
2017-09-13T09:20:55.620Z,14.80
2017-09-13T09:21:55.659Z,14.81
2017-09-13T09:22:55.599Z,15.01
2017-09-13T09:23:55.593Z,15.36
2017-09-13T09:24:55.593Z,15.34
2017-09-13T09:25:55.581Z,15.43
2017-09-13T09:26:55.623Z,15.25
2017-09-13T09:27:55.567Z,15.49
2017-09-13T09:28:55.610Z,15.82
2017-09-13T09:29:55.553Z,15.71
2017-09-13T09:30:55.546Z,15.47
2017-09-13T09:31:55.539Z,15.28
2017-09-13T09:32:55.538Z,15.07
2017-09-13T09:33:55.576Z,14.86
2017-09-13T09:34:55.521Z,14.81
2017-09-13T09:35:55.517Z,14.92
2017-09-13T09:36:55.510Z,14.91
2017-09-13T09:37:55.497Z,14.95
2017-09-13T09:38:55.645Z,14.98
2017-09-13T09:39:55.482Z,15.03
2017-09-13T09:40:55.482Z,14.94
2017-09-13T09:41:55.470Z,15.02
2017-09-13T09:42:55.462Z,15.03
2017-09-13T09:43:55.458Z,15.01
2017-09-13T09:44:55.499Z,15.07
2017-09-13T09:45:55.442Z,15.32
2017-09-13T09:46:55.434Z,15.54
2017-09-13T09:47:55.431Z,15.47
2017-09-13T09:48:55.424Z,15.54
2017-09-13T09:49:55.412Z,15.41
2017-09-13T09:50:55.405Z,15.29
2017-09-13T09:51:55.397Z,15.29
2017-09-13T09:52:55.391Z,15.41
2017-09-13T09:53:55.384Z,15.39
2017-09-13T09:54:55.377Z,15.39
2017-09-13T09:55:55.420Z,15.31
2017-09-13T09:56:55.367Z,15.31
2017-09-13T09:57:55.354Z,15.32
2017-09-13T09:58:55.349Z,15.10
2017-09-13T09:59:55.340Z,15.11
2017-09-13T10:00:55.394Z,14.99
2017-09-13T10:01:55.325Z,15.01
2017-09-13T10:02:55.316Z,14.96
2017-09-13T10:03:55.319Z,15.01
2017-09-13T10:04:55.308Z,14.91
2017-09-13T10:05:55.347Z,14.91
2017-09-13T10:06:55.338Z,14.78
2017-09-13T10:07:55.280Z,14.65
2017-09-13T10:08:55.279Z,14.62
2017-09-13T10:09:55.266Z,14.47
2017-09-13T10:10:55.262Z,14.51
2017-09-13T10:11:55.298Z,14.50
2017-09-13T10:12:55.243Z,14.61
2017-09-13T10:13:55.235Z,14.54
2017-09-13T10:14:55.231Z,14.61
2017-09-13T10:15:55.224Z,14.75
2017-09-13T10:16:55.211Z,14.68
2017-09-13T10:17:55.202Z,14.69
2017-09-13T10:18:55.195Z,14.57
2017-09-13T10:19:55.186Z,14.45
2017-09-13T10:20:55.184Z,14.47
2017-09-13T10:21:55.171Z,14.40
2017-09-13T10:22:55.212Z,14.25
2017-09-13T10:23:55.155Z,14.14
2017-09-13T10:24:55.291Z,14.12
2017-09-13T10:25:55.402Z,13.89
2017-09-13T10:26:55.139Z,13.91
2017-09-13T10:27:55.124Z,13.95
2017-09-13T10:28:55.120Z,13.95
2017-09-13T10:29:55.112Z,13.91
2017-09-13T10:30:55.099Z,13.79
2017-09-13T10:31:55.095Z,13.87
2017-09-13T10:32:55.132Z,13.70
2017-09-13T10:33:55.077Z,13.73
2017-09-13T10:34:55.065Z,13.77
2017-09-13T10:35:55.056Z,13.75
2017-09-13T10:36:55.054Z,13.95
2017-09-13T10:37:55.089Z,13.95
2017-09-13T10:38:55.080Z,14.04
2017-09-13T10:39:55.024Z,14.09
2017-09-13T10:40:55.014Z,14.02
2017-09-13T10:41:55.006Z,14.15
2017-09-13T10:42:54.997Z,14.10
2017-09-13T10:43:54.988Z,14.04
2017-09-13T10:44:55.030Z,14.02
2017-09-13T10:45:54.972Z,14.02
2017-09-13T10:46:54.967Z,13.96
2017-09-13T10:47:54.953Z,14.04
2017-09-13T10:48:54.944Z,14.12
2017-09-13T10:49:54.938Z,14.32
2017-09-13T10:50:54.978Z,14.52
2017-09-13T10:51:54.919Z,14.55
2017-09-13T10:52:54.912Z,14.58
2017-09-13T10:53:54.908Z,14.55
2017-09-13T10:54:54.909Z,14.37
2017-09-13T10:55:54.891Z,14.25
2017-09-13T10:56:54.882Z,14.18
2017-09-13T10:57:54.874Z,14.12
2017-09-13T10:58:54.865Z,13.92
2017-09-13T10:59:54.852Z,13.73
2017-09-13T11:00:54.842Z,13.71
2017-09-13T11:01:54.834Z,13.77
2017-09-13T11:02:54.825Z,13.64
2017-09-13T11:03:54.816Z,13.77
2017-09-13T11:04:54.808Z,13.63
2017-09-13T11:05:54.800Z,13.67
2017-09-13T11:06:54.839Z,13.75
2017-09-13T11:07:54.781Z,13.87
2017-09-13T11:08:54.823Z,14.02
2017-09-13T11:09:54.765Z,14.10
2017-09-13T11:10:54.755Z,14.28
2017-09-13T11:11:54.802Z,14.54
2017-09-13T11:12:54.744Z,14.64
2017-09-13T11:13:54.729Z,14.57
2017-09-13T11:14:54.721Z,14.61
2017-09-13T11:15:54.712Z,14.45
2017-09-13T11:16:54.704Z,14.42
2017-09-13T11:17:54.697Z,14.36
2017-09-13T11:18:54.687Z,14.29
2017-09-13T11:19:54.679Z,14.28
2017-09-13T11:20:54.669Z,14.43
2017-09-13T11:21:54.666Z,14.52
2017-09-13T11:22:54.654Z,14.52
2017-09-13T11:23:54.644Z,14.57
2017-09-13T11:24:54.636Z,14.68
2017-09-13T11:25:54.683Z,14.78
2017-09-13T11:26:54.617Z,14.83
2017-09-13T11:27:54.617Z,14.77
2017-09-13T11:28:54.608Z,14.68
2017-09-13T11:29:54.593Z,14.58
2017-09-13T11:30:54.590Z,14.58
2017-09-13T11:31:54.628Z,14.47
2017-09-13T11:32:54.569Z,14.62
2017-09-13T11:33:54.561Z,14.64
2017-09-13T11:34:54.552Z,14.54
2017-09-13T11:35:54.544Z,14.70
2017-09-13T11:36:54.584Z,14.54
2017-09-13T11:37:54.534Z,14.69
2017-09-13T11:38:54.516Z,14.78
2017-09-13T11:39:54.510Z,14.86
2017-09-13T11:40:54.506Z,14.88
2017-09-13T11:41:54.544Z,14.83
2017-09-13T11:42:54.485Z,14.84
2017-09-13T11:43:54.475Z,14.86
2017-09-13T11:44:54.473Z,14.95
2017-09-13T11:45:54.460Z,14.99
2017-09-13T11:46:54.451Z,15.13
2017-09-13T11:47:54.494Z,15.16
2017-09-13T11:48:54.441Z,15.25
2017-09-13T11:49:54.428Z,15.21
2017-09-13T11:50:54.418Z,15.39
2017-09-13T11:51:54.410Z,15.36
2017-09-13T11:52:54.471Z,15.34
2017-09-13T11:53:54.395Z,15.39
2017-09-13T11:54:54.437Z,15.39
2017-09-13T11:55:54.379Z,15.34
2017-09-13T11:56:54.372Z,15.41
2017-09-13T11:57:54.418Z,15.44
2017-09-13T11:58:54.354Z,15.46
2017-09-13T11:59:54.346Z,15.44
2017-09-13T12:00:54.344Z,15.35
2017-09-13T12:01:54.332Z,15.34
2017-09-13T12:02:54.329Z,15.31
2017-09-13T12:03:54.314Z,15.21
2017-09-13T12:04:54.306Z,15.23
2017-09-13T12:05:54.301Z,15.20
2017-09-13T12:06:54.340Z,15.27
2017-09-13T12:07:54.283Z,15.41
2017-09-13T12:08:54.276Z,15.54
2017-09-13T12:09:54.268Z,15.50
2017-09-13T12:10:54.260Z,15.57
2017-09-13T12:11:54.303Z,15.64
2017-09-13T12:12:54.243Z,15.75
2017-09-13T12:13:54.239Z,15.90
2017-09-13T12:14:54.234Z,15.78
2017-09-13T12:15:54.222Z,15.82
2017-09-13T12:16:54.214Z,15.69
2017-09-13T12:17:54.287Z,15.62
2017-09-13T12:18:54.197Z,15.57
2017-09-13T12:19:54.191Z,15.50
2017-09-13T12:20:54.182Z,15.57
2017-09-13T12:21:54.176Z,15.50
2017-09-13T12:22:54.166Z,15.56
2017-09-13T12:23:54.164Z,15.54
2017-09-13T12:24:54.153Z,15.71
2017-09-13T12:25:54.144Z,15.62
2017-09-13T12:26:54.136Z,15.64
2017-09-13T12:27:54.183Z,15.51
2017-09-13T12:28:54.121Z,15.41
2017-09-13T12:29:54.162Z,15.28
2017-09-13T12:30:54.104Z,15.29
2017-09-13T12:31:54.099Z,15.31
2017-09-13T12:32:54.143Z,15.17
2017-09-13T12:33:54.087Z,15.17
2017-09-13T12:34:54.128Z,15.03
2017-09-13T12:35:54.064Z,15.03
2017-09-13T12:36:54.058Z,14.96
2017-09-13T12:37:54.100Z,14.80
2017-09-13T12:38:54.042Z,14.89
2017-09-13T12:39:54.033Z,14.75
2017-09-13T12:40:54.032Z,14.69
2017-09-13T12:41:54.018Z,14.69
2017-09-13T12:42:54.009Z,14.70
2017-09-13T12:43:54.000Z,14.77
2017-09-13T12:44:53.991Z,14.73
2017-09-13T12:45:53.985Z,14.61
2017-09-13T12:46:53.981Z,14.61
2017-09-13T12:47:53.972Z,14.57
2017-09-13T12:48:53.959Z,14.68
2017-09-13T12:49:53.951Z,14.52
2017-09-13T12:50:53.991Z,14.65
2017-09-13T12:51:53.938Z,14.72
2017-09-13T12:52:53.932Z,14.80
2017-09-13T12:53:53.923Z,14.95
2017-09-13T12:54:53.909Z,15.01
2017-09-13T12:55:53.900Z,15.06
2017-09-13T12:56:53.948Z,15.03
2017-09-13T12:57:53.889Z,14.99
2017-09-13T12:58:53.881Z,14.99
2017-09-13T12:59:53.867Z,14.99
2017-09-13T13:00:53.909Z,15.01
2017-09-13T13:01:53.902Z,15.10
2017-09-13T13:02:53.894Z,15.14
2017-09-13T13:03:53.836Z,15.25
2017-09-13T13:04:53.825Z,15.34
2017-09-13T13:05:53.817Z,15.43